sensor_id;sensor_type;location;lat;lon;timestamp;pressure;altitude;pressure_sealevel;temperature;humidity
8318;BME280;4196;48.926;8.964;2022-11-20T18:22:12;98313.88;;;5.97;100.00
8318;BME280;4196;48.926;8.964;2022-11-20T18:24:59;98306.16;;;5.96;100.00
8318;BME280;4196;48.926;8.964;2022-11-20T18:27:46;98271.75;;;5.62;100.00
8318;BME280;4196;48.926;8.964;2022-11-20T18:30:32;98303.50;;;5.84;100.00
8318;BME280;4196;48.926;8.964;2022-11-20T18:33:18;98294.94;;;5.75;100.00
8318;BME280;4196;48.926;8.964;2022-11-20T18:36:19;98314.78;;;6.09;100.00
8318;BME280;4196;48.926;8.964;2022-11-20T18:39:08;98310.50;;;6.08;100.00
8318;BME280;4196;48.926;8.964;2022-11-20T18:41:55;98285.66;;;6.10;100.00
8318;BME280;4196;48.926;8.964;2022-11-20T18:45:01;98319.97;;;6.28;100.00
8318;BME280;4196;48.926;8.964;2022-11-20T18:47:49;98313.13;;;6.26;100.00
8318;BME280;4196;48.926;8.964;2022-11-20T18:50:35;98297.66;;;6.17;100.00
8318;BME280;4196;48.926;8.964;2022-11-20T18:53:22;98283.94;;;6.12;100.00
8318;BME280;4196;48.926;8.964;2022-11-20T18:56:09;98303.66;;;6.22;100.00
8318;BME280;4196;48.926;8.964;2022-11-20T18:58:57;98292.50;;;6.06;100.00
8318;BME280;4196;48.926;8.964;2022-11-20T19:01:47;98263.34;;;5.99;100.00
8318;BME280;4196;48.926;8.964;2022-11-20T19:04:34;98258.13;;;5.84;100.00
8318;BME280;4196;48.926;8.964;2022-11-20T19:07:21;98302.78;;;6.08;100.00
8318;BME280;4196;48.926;8.964;2022-11-20T19:10:08;98294.16;;;5.99;100.00
8318;BME280;4196;48.926;8.964;2022-11-20T19:12:55;98261.53;;;5.71;100.00
8318;BME280;4196;48.926;8.964;2022-11-20T19:15:43;98278.66;;;5.78;100.00
8318;BME280;4196;48.926;8.964;2022-11-20T19:18:29;98281.22;;;5.72;100.00
8318;BME280;4196;48.926;8.964;2022-11-20T19:21:18;98282.06;;;5.68;100.00
8318;BME280;4196;48.926;8.964;2022-11-20T19:24:07;98253.69;;;5.45;100.00
8318;BME280;4196;48.926;8.964;2022-11-20T19:26:54;98270.88;;;5.63;100.00
8318;BME280;4196;48.926;8.964;2022-11-20T19:29:41;98260.59;;;5.56;100.00
8318;BME280;4196;48.926;8.964;2022-11-20T19:32:27;98248.59;;;5.49;100.00
8318;BME280;4196;48.926;8.964;2022-11-20T19:35:14;98257.19;;;5.56;100.00
8318;BME280;4196;48.926;8.964;2022-11-20T19:38:01;98224.53;;;5.29;100.00
8318;BME280;4196;48.926;8.964;2022-11-20T19:40:50;98242.53;;;5.35;100.00
8318;BME280;4196;48.926;8.964;2022-11-20T19:43:37;98259.69;;;5.45;100.00
8318;BME280;4196;48.926;8.964;2022-11-20T19:46:25;98263.06;;;5.41;100.00
8318;BME280;4196;48.926;8.964;2022-11-20T19:49:13;98257.91;;;5.32;100.00
8318;BME280;4196;48.926;8.964;2022-11-20T19:51:59;98243.47;;;5.57;100.00
8318;BME280;4196;48.926;8.964;2022-11-20T19:54:45;98223.75;;;5.45;100.00
8318;BME280;4196;48.926;8.964;2022-11-20T19:57:31;98236.66;;;5.65;100.00
8318;BME280;4196;48.926;8.964;2022-11-20T20:00:18;98250.38;;;5.70;100.00
8318;BME280;4196;48.926;8.964;2022-11-20T20:03:16;98256.41;;;5.80;100.00
8318;BME280;4196;48.926;8.964;2022-11-20T20:06:11;98240.94;;;5.62;100.00
8318;BME280;4196;48.926;8.964;2022-11-20T20:09:04;98228.06;;;5.57;100.00
8318;BME280;4196;48.926;8.964;2022-11-20T20:11:51;98244.38;;;5.65;100.00
8318;BME280;4196;48.926;8.964;2022-11-20T20:14:38;98244.34;;;5.57;100.00
8318;BME280;4196;48.926;8.964;2022-11-20T20:17:24;98248.66;;;5.65;100.00
8318;BME280;4196;48.926;8.964;2022-11-20T20:20:10;98228.03;;;5.46;100.00
8318;BME280;4196;48.926;8.964;2022-11-20T20:22:57;98252.91;;;5.63;100.00
8318;BME280;4196;48.926;8.964;2022-11-20T20:25:46;98228.03;;;5.46;100.00
8318;BME280;4196;48.926;8.964;2022-11-20T20:28:35;98251.22;;;5.65;100.00
8318;BME280;4196;48.926;8.964;2022-11-20T20:31:24;98271.75;;;5.62;100.00
8318;BME280;4196;48.926;8.964;2022-11-20T20:34:11;98222.84;;;5.31;100.00
8318;BME280;4196;48.926;8.964;2022-11-20T20:36:57;98258.03;;;5.53;100.00
8318;BME280;4196;48.926;8.964;2022-11-20T20:39:43;98238.25;;;5.36;100.00
8318;BME280;4196;48.926;8.964;2022-11-20T20:42:29;98273.44;;;5.53;100.00
8318;BME280;4196;48.926;8.964;2022-11-20T20:45:18;98264.03;;;5.57;100.00
8318;BME280;4196;48.926;8.964;2022-11-20T20:48:04;98271.72;;;5.57;100.00
8318;BME280;4196;48.926;8.964;2022-11-20T20:50:57;98265.72;;;5.55;100.00
8318;BME280;4196;48.926;8.964;2022-11-20T20:53:44;98265.66;;;5.44;100.00
8318;BME280;4196;48.926;8.964;2022-11-20T20:56:31;98276.84;;;5.55;100.00
8318;BME280;4196;48.926;8.964;2022-11-20T20:59:17;98248.53;;;5.34;100.00
8318;BME280;4196;48.926;8.964;2022-11-20T21:02:04;98244.22;;;5.27;100.00
8318;BME280;4196;48.926;8.964;2022-11-20T21:04:51;98272.50;;;5.41;100.00
8318;BME280;4196;48.926;8.964;2022-11-20T21:07:37;98277.63;;;5.39;100.00
8318;BME280;4196;48.926;8.964;2022-11-20T21:10:44;98281.91;;;5.34;100.00
8318;BME280;4196;48.926;8.964;2022-11-20T21:13:30;98248.44;;;5.22;100.00
8318;BME280;4196;48.926;8.964;2022-11-20T21:16:18;98267.34;;;5.35;100.00
8318;BME280;4196;48.926;8.964;2022-11-20T21:19:06;98271.63;;;5.40;100.00
8318;BME280;4196;48.926;8.964;2022-11-20T21:21:53;98281.97;;;5.54;100.00
8318;BME280;4196;48.926;8.964;2022-11-20T21:24:45;98275.16;;;5.61;100.00
8318;BME280;4196;48.926;8.964;2022-11-20T21:27:31;98262.34;;;5.64;100.00
8318;BME280;4196;48.926;8.964;2022-11-20T21:30:18;98264.03;;;5.58;100.00
8318;BME280;4196;48.926;8.964;2022-11-20T21:33:04;98230.56;;;5.40;100.00
8318;BME280;4196;48.926;8.964;2022-11-20T21:35:50;98264.94;;;5.68;100.00
8318;BME280;4196;48.926;8.964;2022-11-20T21:38:37;98276.09;;;5.81;100.00
8318;BME280;4196;48.926;8.964;2022-11-20T21:41:25;98271.00;;;5.86;100.00
8318;BME280;4196;48.926;8.964;2022-11-20T21:44:13;98259.81;;;5.80;100.00
8318;BME280;4196;48.926;8.964;2022-11-20T21:47:16;98267.53;;;5.85;100.00
8318;BME280;4196;48.926;8.964;2022-11-20T21:50:03;98252.97;;;5.75;100.00
8318;BME280;4196;48.926;8.964;2022-11-20T21:52:50;98248.63;;;5.63;100.00
8318;BME280;4196;48.926;8.964;2022-11-20T21:55:36;98267.47;;;5.61;100.00
8318;BME280;4196;48.926;8.964;2022-11-20T21:58:22;98273.38;;;5.47;100.00
8318;BME280;4196;48.926;8.964;2022-11-20T22:01:20;98269.97;;;5.48;100.00
8318;BME280;4196;48.926;8.964;2022-11-20T22:04:12;98270.88;;;5.56;100.00
8318;BME280;4196;48.926;8.964;2022-11-20T22:06:58;98281.16;;;5.63;100.00
8318;BME280;4196;48.926;8.964;2022-11-20T22:09:45;98226.31;;;5.44;100.00
8318;BME280;4196;48.926;8.964;2022-11-20T22:12:31;98264.06;;;5.65;100.00
8318;BME280;4196;48.926;8.964;2022-11-20T22:15:17;98265.72;;;5.55;100.00
8318;BME280;4196;48.926;8.964;2022-11-20T22:18:24;98277.72;;;5.53;100.00
8318;BME280;4196;48.926;8.964;2022-11-20T22:21:11;98276.84;;;5.52;100.00
8318;BME280;4196;48.926;8.964;2022-11-20T22:23:58;98282.84;;;5.54;100.00
8318;BME280;4196;48.926;8.964;2022-11-20T22:26:45;98276.84;;;5.55;100.00
8318;BME280;4196;48.926;8.964;2022-11-20T22:29:31;98292.31;;;5.68;100.00
8318;BME280;4196;48.926;8.964;2022-11-20T22:32:18;98263.19;;;5.56;100.00
8318;BME280;4196;48.926;8.964;2022-11-20T22:35:04;98278.59;;;5.66;100.00
8318;BME280;4196;48.926;8.964;2022-11-20T22:37:51;98259.69;;;5.44;100.00
8318;BME280;4196;48.926;8.964;2022-11-20T22:40:37;98276.84;;;5.52;100.00
8318;BME280;4196;48.926;8.964;2022-11-20T22:43:24;98270.78;;;5.40;100.00
8318;BME280;4196;48.926;8.964;2022-11-20T22:46:14;98282.81;;;5.51;100.00
8318;BME280;4196;48.926;8.964;2022-11-20T22:49:03;98264.84;;;5.45;100.00
8318;BME280;4196;48.926;8.964;2022-11-20T22:51:50;98274.22;;;5.43;100.00
8318;BME280;4196;48.926;8.964;2022-11-20T22:54:36;98243.34;;;5.28;100.00
8318;BME280;4196;48.926;8.964;2022-11-20T22:57:23;98246.75;;;5.28;100.00
8318;BME280;4196;48.926;8.964;2022-11-20T23:00:09;98249.28;;;5.18;100.00
8318;BME280;4196;48.926;8.964;2022-11-20T23:02:56;98242.47;;;5.20;100.00
8318;BME280;4196;48.926;8.964;2022-11-20T23:05:42;98235.69;;;5.36;100.00
8318;BME280;4196;48.926;8.964;2022-11-20T23:08:29;98270.03;;;5.56;100.00
8318;BME280;4196;48.926;8.964;2022-11-20T23:11:17;98263.19;;;5.56;100.00
8318;BME280;4196;48.926;8.964;2022-11-20T23:14:06;98270.78;;;5.38;100.00
8318;BME280;4196;48.926;8.964;2022-11-20T23:16:53;98271.66;;;5.43;100.00
8318;BME280;4196;48.926;8.964;2022-11-20T23:19:39;98262.25;;;5.48;100.00
8318;BME280;4196;48.926;8.964;2022-11-20T23:22:26;98263.13;;;5.47;100.00
8318;BME280;4196;48.926;8.964;2022-11-20T23:25:12;98266.59;;;5.52;100.00
8318;BME280;4196;48.926;8.964;2022-11-20T23:27:59;98247.75;;;5.53;100.00
8318;BME280;4196;48.926;8.964;2022-11-20T23:30:46;98204.75;;;5.09;100.00
8318;BME280;4196;48.926;8.964;2022-11-20T23:33:37;98243.31;;;5.26;100.00
8318;BME280;4196;48.926;8.964;2022-11-20T23:36:25;98285.31;;;5.36;100.00
8318;BME280;4196;48.926;8.964;2022-11-20T23:39:11;98238.13;;;5.09;100.00
8318;BME280;4196;48.926;8.964;2022-11-20T23:42:00;98286.19;;;5.40;100.00
8318;BME280;4196;48.926;8.964;2022-11-20T23:44:46;98262.16;;;5.27;100.00
8318;BME280;4196;48.926;8.964;2022-11-20T23:47:32;98283.69;;;5.50;100.00
8318;BME280;4196;48.926;8.964;2022-11-20T23:50:19;98293.06;;;5.47;100.00
8318;BME280;4196;48.926;8.964;2022-11-20T23:53:05;98283.78;;;5.75;100.00
8318;BME280;4196;48.926;8.964;2022-11-20T23:55:54;98282.09;;;5.80;100.00
8318;BME280;4196;48.926;8.964;2022-11-20T23:58:41;98270.97;;;5.82;100.00
